IJmuiden, Nederland

11:14 AM CET op 01 november 2014 (GMT +0100)
Weer IJmuiden | Change Station
CLOSE
Current Station
Persoonlijk weerstation
Location: IJmuiden, NOORD-HOLLAND
Geometrische hoogte: 36 ft
Nabije weerstations

Hoogte 36 ft 52.46 °N, 4.61 °E | Updated 1 second ago

Clear
Helder
63.1 °F
Voelt als 63.1 °F
N
2.7
Wind Variabel Wind van ZZW
Gusts 12.5 mijl/u

Vandaag
Hoog -- | Laag -- °F
--% Kans op neerslag
Gisteren
Hoog -- | Laag -- °F
Precip. -- inches
7:37 AM 5:12 PM
Wassende maan, 65% visible
Druk 30.01 inches
Zicht 6.2 mijlen
Wolken
Dauwpunt 55 °F
Vochtigheid 77%
Neerslag 0.00 inches
Dikte sneeuw Niet beschikbaar.
UV 0.0 van de 12
Pollen Niet beschikbaar.
Luchtkwaliteit Niet beschikbaar.
Flu Activity Niet beschikbaar.
SPECI EHKD 010957Z AUTO 22012KT 9999 NCD 16/13 Q1016 BLU

More Conditions Fewer Conditions

Druk 30.01 inches
Zicht 6.2 mijlen
Wolken
Dauwpunt 55 °F
Vochtigheid 77%
Neerslag 0.00 inches
Dikte sneeuw Niet beschikbaar.
UV 0.0 van de 12
Pollen Niet beschikbaar.
Luchtkwaliteit Niet beschikbaar.
Flu Activity Niet beschikbaar.
SPECI EHKD 010957Z AUTO 22012KT 9999 NCD 16/13 Q1016 BLU

More Conditions Fewer Conditions

10-Day Weather Forecast

Almanac

Astronomie

Nov. 01, 2014 Opkomst Ondergang
Werkelijke tijd
Burgerlijke schemering
Nautische schemering
Astronomische schemering
Maan
Golflengte van het zichtbare licht
Daglengte
Tomorrow will be .
, % of the Moon is Illuminated

Extremen vandaag

Country Highs Country Lows

Community

WunderPhotos

Upload Photos

1,766,874 foto’s ge-upload!

WunderBlogs® & News

Nearby

Luchtkwaliteit

  Luchtkwaliteit LK-index Verontreinigende stof
Not available.

Dikte sneeuw

Station Depth Geometrische hoogte

Aardbevingen

Stad Distance Mag. Time & Date
Minimum magnitude displayed is 2.5.

Watertemperatuur langs de kust

Plaats Temperatuur

Nabije weerstations